sensor_id;sensor_type;location;lat;lon;timestamp;pressure;altitude;pressure_sealevel;temperature;humidity
76496;BME280;65329;52.544;4.662;2024-03-22T00:00:48;108236.47;;;-139.74;2.85
76496;BME280;65329;52.544;4.662;2024-03-22T00:03:14;108946.97;;;-139.74;5.29
76496;BME280;65329;52.544;4.662;2024-03-22T00:05:39;108549.44;;;-139.74;5.97
76496;BME280;65329;52.544;4.662;2024-03-22T00:08:05;108631.88;;;-139.74;5.12
76496;BME280;65329;52.544;4.662;2024-03-22T00:10:31;109266.31;;;-139.74;4.48
76496;BME280;65329;52.544;4.662;2024-03-22T00:12:57;109414.38;;;-139.74;3.16
76496;BME280;65329;52.544;4.662;2024-03-22T00:15:23;109765.47;;;-139.74;3.45
76496;BME280;65329;52.544;4.662;2024-03-22T00:17:49;108547.31;;;-139.74;6.61
76496;BME280;65329;52.544;4.662;2024-03-22T00:20:15;109680.84;;;-139.74;11.69
76496;BME280;65329;52.544;4.662;2024-03-22T00:22:41;110730.09;;;-139.74;11.66
76496;BME280;65329;52.544;4.662;2024-03-22T00:25:07;109790.84;;;-139.74;10.55
76496;BME280;65329;52.544;4.662;2024-03-22T00:27:33;112719.31;;;-139.74;12.51
76496;BME280;65329;52.544;4.662;2024-03-22T00:29:59;110988.22;;;-139.74;11.61
76496;BME280;65329;52.544;4.662;2024-03-22T00:32:25;111068.63;;;-139.74;11.41
76496;BME280;65329;52.544;4.662;2024-03-22T00:34:51;111030.53;;;-139.74;12.28
76496;BME280;65329;52.544;4.662;2024-03-22T00:37:17;111157.47;;;-139.74;14.09
76496;BME280;65329;52.544;4.662;2024-03-22T00:39:42;112071.66;;;-139.74;12.99
76496;BME280;65329;52.544;4.662;2024-03-22T00:42:09;111358.50;;;-139.74;13.92
76496;BME280;65329;52.544;4.662;2024-03-22T00:44:34;109680.84;;;-139.74;11.62
76496;BME280;65329;52.544;4.662;2024-03-22T00:47:00;112008.16;;;-139.74;10.72
76496;BME280;65329;52.544;4.662;2024-03-22T00:49:29;112092.81;;;-139.74;13.02
76496;BME280;65329;52.544;4.662;2024-03-22T00:51:55;111447.38;;;-139.74;10.94
76496;BME280;65329;52.544;4.662;2024-03-22T00:54:22;112188.06;;;-139.74;14.21
76496;BME280;65329;52.544;4.662;2024-03-22T00:56:48;113439.06;;;-139.74;15.74
76496;BME280;65329;52.544;4.662;2024-03-22T00:59:14;114326.19;;;-139.74;14.33
76496;BME280;65329;52.544;4.662;2024-03-22T01:01:40;114453.25;;;-139.74;18.44
76496;BME280;65329;52.544;4.662;2024-03-22T01:04:06;115760.03;;;-139.74;17.82
76496;BME280;65329;52.544;4.662;2024-03-22T01:06:35;115078.00;;;-139.74;16.79
76496;BME280;65329;52.544;4.662;2024-03-22T01:09:01;115471.94;;;-139.74;13.34
76496;BME280;65329;52.544;4.662;2024-03-22T01:11:29;116238.78;;;-139.74;15.37
76496;BME280;65329;52.544;4.662;2024-03-22T01:13:55;116310.81;;;-139.74;17.30
76496;BME280;65329;52.544;4.662;2024-03-22T01:16:21;117938.19;;;-139.74;17.38
76496;BME280;65329;52.544;4.662;2024-03-22T01:18:47;117666.91;;;-139.74;16.76
76496;BME280;65329;52.544;4.662;2024-03-22T01:21:13;117666.91;;;-139.74;15.93
76496;BME280;65329;52.544;4.662;2024-03-22T01:23:39;117666.91;;;-139.74;16.41
76496;BME280;65329;52.544;4.662;2024-03-22T01:26:05;117395.66;;;-139.74;15.58
76496;BME280;65329;52.544;4.662;2024-03-22T01:28:31;117938.19;;;-139.74;12.79
76496;BME280;65329;52.544;4.662;2024-03-22T01:30:57;117253.69;;;-139.74;13.43
76496;BME280;65329;52.544;4.662;2024-03-22T01:33:23;117940.31;;;-139.74;13.77
76496;BME280;65329;52.544;4.662;2024-03-22T01:35:49;117395.66;;;-139.74;16.66
76496;BME280;65329;52.544;4.662;2024-03-22T01:38:15;117666.91;;;-139.74;15.55
76496;BME280;65329;52.544;4.662;2024-03-22T01:40:40;117940.31;;;-139.74;19.65
76496;BME280;65329;52.544;4.662;2024-03-22T01:43:06;117940.31;;;-139.74;17.13
76496;BME280;65329;52.544;4.662;2024-03-22T01:45:33;117940.31;;;-139.74;21.44
76496;BME280;65329;52.544;4.662;2024-03-22T01:48:00;117938.19;;;-139.74;22.80
76496;BME280;65329;52.544;4.662;2024-03-22T01:50:27;117940.31;;;-139.74;20.55
76496;BME280;65329;52.544;4.662;2024-03-22T01:52:53;117266.41;;;-139.74;18.99
76496;BME280;65329;52.544;4.662;2024-03-22T01:55:19;117395.66;;;-139.74;20.05
76496;BME280;65329;52.544;4.662;2024-03-22T01:57:48;117940.31;;;-139.74;15.98
76496;BME280;65329;52.544;4.662;2024-03-22T02:00:16;117516.44;;;-139.74;15.32
76496;BME280;65329;52.544;4.662;2024-03-22T02:02:42;117938.19;;;-139.74;15.99
76496;BME280;65329;52.544;4.662;2024-03-22T02:05:13;117938.19;;;-139.74;17.25
76496;BME280;65329;52.544;4.662;2024-03-22T02:07:39;117666.91;;;-139.74;18.95
76496;BME280;65329;52.544;4.662;2024-03-22T02:10:05;117940.31;;;-139.74;18.22
76496;BME280;65329;52.544;4.662;2024-03-22T02:12:34;117940.31;;;-139.74;19.79
76496;BME280;65329;52.544;4.662;2024-03-22T02:15:00;117940.31;;;-139.74;19.65
76496;BME280;65329;52.544;4.662;2024-03-22T02:17:27;117940.31;;;-139.74;17.91
76496;BME280;65329;52.544;4.662;2024-03-22T02:19:53;117940.31;;;-139.74;19.41
76496;BME280;65329;52.544;4.662;2024-03-22T02:22:19;117940.31;;;-139.74;21.29
76496;BME280;65329;52.544;4.662;2024-03-22T02:24:45;117940.31;;;-139.74;20.11
76496;BME280;65329;52.544;4.662;2024-03-22T02:27:10;117940.31;;;-139.74;15.57
76496;BME280;65329;52.544;4.662;2024-03-22T02:29:36;117940.31;;;-139.74;17.16
76496;BME280;65329;52.544;4.662;2024-03-22T02:32:02;117940.31;;;-139.74;14.66
76496;BME280;65329;52.544;4.662;2024-03-22T02:34:29;117940.31;;;-139.74;15.41
76496;BME280;65329;52.544;4.662;2024-03-22T02:36:55;117940.31;;;-139.74;13.89
76496;BME280;65329;52.544;4.662;2024-03-22T02:39:21;117940.31;;;-139.74;15.88
76496;BME280;65329;52.544;4.662;2024-03-22T02:41:47;117940.31;;;-139.74;16.16
76496;BME280;65329;52.544;4.662;2024-03-22T02:44:13;117940.31;;;-139.74;15.12
76496;BME280;65329;52.544;4.662;2024-03-22T02:46:39;117940.31;;;-139.74;17.42
76496;BME280;65329;52.544;4.662;2024-03-22T02:49:05;117940.31;;;-139.74;20.03
76496;BME280;65329;52.544;4.662;2024-03-22T02:51:31;117940.31;;;-139.74;21.37
76496;BME280;65329;52.544;4.662;2024-03-22T02:53:57;117940.31;;;-139.74;22.19
76496;BME280;65329;52.544;4.662;2024-03-22T02:56:23;117940.31;;;-139.74;26.10
76496;BME280;65329;52.544;4.662;2024-03-22T02:58:49;117940.31;;;-139.74;22.68
76496;BME280;65329;52.544;4.662;2024-03-22T03:01:16;117940.31;;;-139.74;21.13
76496;BME280;65329;52.544;4.662;2024-03-22T03:03:41;117940.31;;;-139.74;21.64
76496;BME280;65329;52.544;4.662;2024-03-22T03:06:07;117940.31;;;-139.74;18.78
76496;BME280;65329;52.544;4.662;2024-03-22T03:08:34;117940.31;;;-139.74;17.40
76496;BME280;65329;52.544;4.662;2024-03-22T03:11:00;117940.31;;;-139.74;18.80
76496;BME280;65329;52.544;4.662;2024-03-22T03:13:26;117940.31;;;-139.74;15.20
76496;BME280;65329;52.544;4.662;2024-03-22T03:15:54;117940.31;;;-139.74;16.11
76496;BME280;65329;52.544;4.662;2024-03-22T03:18:20;117940.31;;;-139.74;16.39
76496;BME280;65329;52.544;4.662;2024-03-22T03:20:47;117940.31;;;-139.74;15.83
76496;BME280;65329;52.544;4.662;2024-03-22T03:23:13;117940.31;;;-139.74;15.39
76496;BME280;65329;52.544;4.662;2024-03-22T03:25:40;117940.31;;;-139.74;11.74
76496;BME280;65329;52.544;4.662;2024-03-22T03:28:06;117940.31;;;-139.74;6.96
76496;BME280;65329;52.544;4.662;2024-03-22T03:30:34;117940.31;;;-139.74;13.63
76496;BME280;65329;52.544;4.662;2024-03-22T03:33:01;117940.31;;;-139.74;11.79
76496;BME280;65329;52.544;4.662;2024-03-22T03:35:27;117940.31;;;-139.74;10.29
76496;BME280;65329;52.544;4.662;2024-03-22T03:37:55;117940.31;;;-139.74;12.22
76496;BME280;65329;52.544;4.662;2024-03-22T03:40:21;117940.31;;;-139.74;11.67
76496;BME280;65329;52.544;4.662;2024-03-22T03:42:51;117940.31;;;-139.74;9.26
76496;BME280;65329;52.544;4.662;2024-03-22T03:45:17;117940.31;;;-139.74;8.37
76496;BME280;65329;52.544;4.662;2024-03-22T03:47:42;117940.31;;;-139.74;6.20
76496;BME280;65329;52.544;4.662;2024-03-22T03:50:09;117940.31;;;-139.74;5.73
76496;BME280;65329;52.544;4.662;2024-03-22T03:52:35;117940.31;;;-139.74;3.91
76496;BME280;65329;52.544;4.662;2024-03-22T03:55:01;117940.31;;;-139.74;1.67
76496;BME280;65329;52.544;4.662;2024-03-22T03:57:27;117940.31;;;-139.74;2.21
76496;BME280;65329;52.544;4.662;2024-03-22T03:59:52;117940.31;;;-139.74;1.28
76496;BME280;65329;52.544;4.662;2024-03-22T04:02:18;117940.31;;;-139.74;4.00
76496;BME280;65329;52.544;4.662;2024-03-22T04:04:45;117940.31;;;-139.74;2.91
76496;BME280;65329;52.544;4.662;2024-03-22T04:07:10;117940.31;;;-139.74;15.45
76496;BME280;65329;52.544;4.662;2024-03-22T04:09:36;117940.31;;;-139.74;17.28
76496;BME280;65329;52.544;4.662;2024-03-22T04:12:02;117940.31;;;-139.74;14.22
76496;BME280;65329;52.544;4.662;2024-03-22T04:14:28;117940.31;;;-139.74;16.27
76496;BME280;65329;52.544;4.662;2024-03-22T04:16:54;117940.31;;;-139.74;14.98
76496;BME280;65329;52.544;4.662;2024-03-22T04:19:21;117940.31;;;-139.74;17.75
76496;BME280;65329;52.544;4.662;2024-03-22T04:21:48;117940.31;;;-139.74;17.85
76496;BME280;65329;52.544;4.662;2024-03-22T04:24:15;117940.31;;;-139.74;12.31
76496;BME280;65329;52.544;4.662;2024-03-22T04:26:40;117940.31;;;-139.74;10.29
76496;BME280;65329;52.544;4.662;2024-03-22T04:29:06;117940.31;;;-139.74;9.38
76496;BME280;65329;52.544;4.662;2024-03-22T04:31:32;117940.31;;;-139.74;9.98
76496;BME280;65329;52.544;4.662;2024-03-22T04:33:58;117940.31;;;-139.74;6.17
76496;BME280;65329;52.544;4.662;2024-03-22T04:36:24;117940.31;;;-139.74;0.00
76496;BME280;65329;52.544;4.662;2024-03-22T04:38:50;117940.31;;;-139.74;2.97
76496;BME280;65329;52.544;4.662;2024-03-22T04:41:16;117940.31;;;-139.74;0.00
76496;BME280;65329;52.544;4.662;2024-03-22T04:43:42;117940.31;;;-139.74;0.00
76496;BME280;65329;52.544;4.662;2024-03-22T04:46:08;117940.31;;;-139.74;0.00
76496;BME280;65329;52.544;4.662;2024-03-22T04:48:34;117908.53;;;-139.74;0.00
76496;BME280;65329;52.544;4.662;2024-03-22T04:51:00;117940.31;;;-139.74;0.00
76496;BME280;65329;52.544;4.662;2024-03-22T04:53:26;117940.31;;;-139.74;0.00
76496;BME280;65329;52.544;4.662;2024-03-22T04:55:52;117825.88;;;-139.74;0.00
76496;BME280;65329;52.544;4.662;2024-03-22T04:58:20;117315.13;;;-139.74;0.00
76496;BME280;65329;52.544;4.662;2024-03-22T05:00:47;117232.50;;;-139.74;0.00
76496;BME280;65329;52.544;4.662;2024-03-22T05:03:14;116592.59;;;-139.74;0.00
76496;BME280;65329;52.544;4.662;2024-03-22T05:05:41;116685.81;;;-139.74;0.00
76496;BME280;65329;52.544;4.662;2024-03-22T05:08:07;116768.44;;;-139.74;0.00
76496;BME280;65329;52.544;4.662;2024-03-22T05:10:34;116226.06;;;-139.74;0.00
76496;BME280;65329;52.544;4.662;2024-03-22T05:13:00;116603.19;;;-139.74;0.00
76496;BME280;65329;52.544;4.662;2024-03-22T05:15:26;115611.75;;;-139.74;0.00
76496;BME280;65329;52.544;4.662;2024-03-22T05:17:52;115446.53;;;-139.74;0.00
76496;BME280;65329;52.544;4.662;2024-03-22T05:20:19;115327.91;;;-139.74;0.00
76496;BME280;65329;52.544;4.662;2024-03-22T05:22:47;115213.53;;;-139.74;0.00
76496;BME280;65329;52.544;4.662;2024-03-22T05:25:13;115611.75;;;-139.74;0.00
76496;BME280;65329;52.544;4.662;2024-03-22T05:27:41;114618.44;;;-139.74;0.00
76496;BME280;65329;52.544;4.662;2024-03-22T05:30:09;114046.69;;;-139.74;0.00
76496;BME280;65329;52.544;4.662;2024-03-22T05:32:35;113894.25;;;-139.74;0.00
76496;BME280;65329;52.544;4.662;2024-03-22T05:35:01;114527.38;;;-139.74;0.00
76496;BME280;65329;52.544;4.662;2024-03-22T05:37:27;114760.31;;;-139.74;0.00
76496;BME280;65329;52.544;4.662;2024-03-22T05:39:53;114861.97;;;-139.74;0.00
76496;BME280;65329;52.544;4.662;2024-03-22T05:42:19;114641.72;;;-139.74;0.00
76496;BME280;65329;52.544;4.662;2024-03-22T05:44:45;115698.59;;;-139.74;0.00
76496;BME280;65329;52.544;4.662;2024-03-22T05:47:11;116236.66;;;-139.74;0.00
76496;BME280;65329;52.544;4.662;2024-03-22T05:49:37;115340.63;;;-139.74;0.00
76496;BME280;65329;52.544;4.662;2024-03-22T05:52:03;116329.88;;;-139.74;0.00
76496;BME280;65329;52.544;4.662;2024-03-22T05:54:29;116143.44;;;-139.74;0.00
76496;BME280;65329;52.544;4.662;2024-03-22T05:56:55;116255.72;;;-139.74;0.00
76496;BME280;65329;52.544;4.662;2024-03-22T05:59:21;116281.16;;;-139.74;0.00
76496;BME280;65329;52.544;4.662;2024-03-22T06:01:47;116399.78;;;-139.74;0.00
76496;BME280;65329;52.544;4.662;2024-03-22T06:04:13;117461.34;;;-139.74;0.00
76496;BME280;65329;52.544;4.662;2024-03-22T06:06:39;117361.75;;;-139.74;0.00
76496;BME280;65329;52.544;4.662;2024-03-22T06:09:05;117840.69;;;-139.74;0.00
76496;BME280;65329;52.544;4.662;2024-03-22T06:11:37;117717.78;;;-139.74;0.00
76496;BME280;65329;52.544;4.662;2024-03-22T06:14:03;117910.63;;;-139.74;0.00
76496;BME280;65329;52.544;4.662;2024-03-22T06:16:29;117940.31;;;-139.74;0.00
76496;BME280;65329;52.544;4.662;2024-03-22T06:18:55;117940.31;;;-139.74;0.00
76496;BME280;65329;52.544;4.662;2024-03-22T06:21:21;117940.31;;;-139.74;0.00
76496;BME280;65329;52.544;4.662;2024-03-22T06:23:51;117940.31;;;-139.74;0.00
76496;BME280;65329;52.544;4.662;2024-03-22T06:26:17;117940.31;;;-139.74;0.00
76496;BME280;65329;52.544;4.662;2024-03-22T06:28:43;117940.31;;;-139.74;0.00
76496;BME280;65329;52.544;4.662;2024-03-22T06:31:09;117940.31;;;-139.74;0.00
76496;BME280;65329;52.544;4.662;2024-03-22T06:33:35;117940.31;;;-139.74;0.00
76496;BME280;65329;52.544;4.662;2024-03-22T06:36:01;117940.31;;;-139.74;0.00
76496;BME280;65329;52.544;4.662;2024-03-22T06:38:29;117940.31;;;-139.74;0.00
76496;BME280;65329;52.544;4.662;2024-03-22T06:40:55;117940.31;;;-139.74;0.00
76496;BME280;65329;52.544;4.662;2024-03-22T06:43:21;117940.31;;;-139.74;0.00
76496;BME280;65329;52.544;4.662;2024-03-22T06:45:47;117940.31;;;-139.74;0.00
76496;BME280;65329;52.544;4.662;2024-03-22T06:48:13;117940.31;;;-139.74;0.00
76496;BME280;65329;52.544;4.662;2024-03-22T06:50:42;117940.31;;;-139.74;0.00
76496;BME280;65329;52.544;4.662;2024-03-22T06:53:08;117940.31;;;-139.74;0.00
76496;BME280;65329;52.544;4.662;2024-03-22T06:55:37;117940.31;;;-139.74;0.00
76496;BME280;65329;52.544;4.662;2024-03-22T06:58:03;117940.31;;;-139.74;0.00
76496;BME280;65329;52.544;4.662;2024-03-22T07:00:29;117940.31;;;-139.74;0.00
76496;BME280;65329;52.544;4.662;2024-03-22T07:02:56;117940.31;;;-139.74;0.00
76496;BME280;65329;52.544;4.662;2024-03-22T07:05:22;117940.31;;;-139.74;0.00
76496;BME280;65329;52.544;4.662;2024-03-22T07:07:48;117940.31;;;-139.74;0.00
76496;BME280;65329;52.544;4.662;2024-03-22T07:10:21;117940.31;;;-139.74;0.00
76496;BME280;65329;52.544;4.662;2024-03-22T07:12:48;117940.31;;;-139.74;0.00
76496;BME280;65329;52.544;4.662;2024-03-22T07:15:15;117940.31;;;-139.74;0.00
76496;BME280;65329;52.544;4.662;2024-03-22T07:17:40;117940.31;;;-139.74;0.00
76496;BME280;65329;52.544;4.662;2024-03-22T07:20:07;117940.31;;;-139.74;0.00
76496;BME280;65329;52.544;4.662;2024-03-22T07:22:33;117940.31;;;-139.74;0.00
76496;BME280;65329;52.544;4.662;2024-03-22T07:24:59;117940.31;;;-139.74;0.00
76496;BME280;65329;52.544;4.662;2024-03-22T07:27:25;117940.31;;;-139.74;0.00
76496;BME280;65329;52.544;4.662;2024-03-22T07:29:55;117940.31;;;-139.74;0.00
76496;BME280;65329;52.544;4.662;2024-03-22T07:32:21;117940.31;;;-139.74;0.00
76496;BME280;65329;52.544;4.662;2024-03-22T07:34:47;117940.31;;;-139.74;0.00
76496;BME280;65329;52.544;4.662;2024-03-22T07:37:13;117940.31;;;-139.74;0.00
76496;BME280;65329;52.544;4.662;2024-03-22T07:39:39;117940.31;;;-139.74;0.00
76496;BME280;65329;52.544;4.662;2024-03-22T07:42:05;117940.31;;;-139.74;0.00
76496;BME280;65329;52.544;4.662;2024-03-22T07:44:31;117940.31;;;-139.74;0.00
76496;BME280;65329;52.544;4.662;2024-03-22T07:46:57;117940.31;;;-139.74;0.00
76496;BME280;65329;52.544;4.662;2024-03-22T07:49:24;117940.31;;;-139.74;0.00
76496;BME280;65329;52.544;4.662;2024-03-22T07:51:50;117940.31;;;-139.74;0.00
76496;BME280;65329;52.544;4.662;2024-03-22T07:54:16;117940.31;;;-139.74;0.00
76496;BME280;65329;52.544;4.662;2024-03-22T07:56:42;117940.31;;;-139.74;0.00
76496;BME280;65329;52.544;4.662;2024-03-22T07:59:08;117940.31;;;-139.74;0.00
76496;BME280;65329;52.544;4.662;2024-03-22T08:01:34;117940.31;;;-139.74;0.00
76496;BME280;65329;52.544;4.662;2024-03-22T08:04:00;117940.31;;;-139.74;0.00
76496;BME280;65329;52.544;4.662;2024-03-22T08:06:27;117940.31;;;-139.74;0.00
76496;BME280;65329;52.544;4.662;2024-03-22T08:08:53;117940.31;;;-139.74;0.00
76496;BME280;65329;52.544;4.662;2024-03-22T08:11:19;117940.31;;;-139.74;0.00
76496;BME280;65329;52.544;4.662;2024-03-22T08:13:45;117940.31;;;-139.74;0.00
76496;BME280;65329;52.544;4.662;2024-03-22T08:16:12;117940.31;;;-139.74;0.00
76496;BME280;65329;52.544;4.662;2024-03-22T08:18:38;117910.63;;;-139.74;0.00
76496;BME280;65329;52.544;4.662;2024-03-22T08:21:04;117461.34;;;-139.74;0.00
76496;BME280;65329;52.544;4.662;2024-03-22T08:23:30;116340.47;;;-139.74;0.00
76496;BME280;65329;52.544;4.662;2024-03-22T08:25:57;116503.59;;;-139.74;0.00
76496;BME280;65329;52.544;4.662;2024-03-22T08:28:23;108352.78;;;-139.74;0.00
76496;BME280;65329;52.544;4.662;2024-03-22T08:30:49;106446.00;;;-139.74;0.00
76496;BME280;65329;52.544;4.662;2024-03-22T08:33:15;106002.22;;;-139.74;0.00
76496;BME280;65329;52.544;4.662;2024-03-22T08:35:41;108746.06;;;-139.74;1.77
76496;BME280;65329;52.544;4.662;2024-03-22T08:38:07;107348.53;;;-139.74;6.13
76496;BME280;65329;52.544;4.662;2024-03-22T08:40:38;107181.53;;;-139.74;15.39
76496;BME280;65329;52.544;4.662;2024-03-22T08:43:05;105773.97;;;-139.74;26.17
76496;BME280;65329;52.544;4.662;2024-03-22T08:45:33;100009.34;;;-139.74;29.76
76496;BME280;65329;52.544;4.662;2024-03-22T08:48:00;101372.69;;;-139.74;33.56
76496;BME280;65329;52.544;4.662;2024-03-22T08:50:26;91634.59;;;-139.74;35.52
76496;BME280;65329;52.544;4.662;2024-03-22T08:52:52;90779.75;;;-139.74;36.63
76496;BME280;65329;52.544;4.662;2024-03-22T08:55:18;86813.25;;;-139.74;37.70
76496;BME280;65329;52.544;4.662;2024-03-22T08:57:45;81289.81;;;-139.74;38.81
76496;BME280;65329;52.544;4.662;2024-03-22T09:00:11;78438.56;;;-139.74;42.56
76496;BME280;65329;52.544;4.662;2024-03-22T09:02:37;65982.50;;;-139.74;44.35
76496;BME280;65329;52.544;4.662;2024-03-22T09:05:05;46375.88;;;-139.74;45.66
76496;BME280;65329;52.544;4.662;2024-03-22T09:07:31;35680.66;;;-139.74;44.11
76496;BME280;65329;52.544;4.662;2024-03-22T09:09:57;-18597.69;;;-139.74;46.32
76496;BME280;65329;52.544;4.662;2024-03-22T09:12:24;-18597.69;;;-139.74;45.42
76496;BME280;65329;52.544;4.662;2024-03-22T09:14:50;-18597.69;;;-139.74;45.62
76496;BME280;65329;52.544;4.662;2024-03-22T09:17:16;-18597.69;;;-139.74;47.54
76496;BME280;65329;52.544;4.662;2024-03-22T09:19:42;-18597.69;;;-139.74;48.93
76496;BME280;65329;52.544;4.662;2024-03-22T09:22:08;-18597.69;;;-139.74;46.25
76496;BME280;65329;52.544;4.662;2024-03-22T09:24:34;-18597.69;;;-139.74;46.44
76496;BME280;65329;52.544;4.662;2024-03-22T09:27:00;-18597.69;;;-139.74;46.57
76496;BME280;65329;52.544;4.662;2024-03-22T09:29:26;-18597.69;;;-139.74;47.66
76496;BME280;65329;52.544;4.662;2024-03-22T09:31:52;-18597.69;;;-139.74;48.45
76496;BME280;65329;52.544;4.662;2024-03-22T09:34:18;-18597.69;;;-139.74;48.78
76496;BME280;65329;52.544;4.662;2024-03-22T09:36:45;-18597.69;;;-139.74;48.91
76496;BME280;65329;52.544;4.662;2024-03-22T09:39:11;-18597.69;;;-139.74;47.83
76496;BME280;65329;52.544;4.662;2024-03-22T09:41:42;-18597.69;;;-139.74;48.63
76496;BME280;65329;52.544;4.662;2024-03-22T09:44:13;-18597.69;;;-139.74;50.50
76496;BME280;65329;52.544;4.662;2024-03-22T09:46:43;-18597.69;;;-139.74;50.58
76496;BME280;65329;52.544;4.662;2024-03-22T09:49:12;-18597.69;;;-139.74;50.11
76496;BME280;65329;52.544;4.662;2024-03-22T09:51:39;-18597.69;;;-139.74;50.54
76496;BME280;65329;52.544;4.662;2024-03-22T09:54:11;-3727.63;;;-139.74;50.65
76496;BME280;65329;52.544;4.662;2024-03-22T09:56:38;-13898.53;;;-139.74;50.69
76496;BME280;65329;52.544;4.662;2024-03-22T09:59:05;-16451.91;;;-139.74;49.64
76496;BME280;65329;52.544;4.662;2024-03-22T10:01:34;-17011.13;;;-139.74;49.64
76496;BME280;65329;52.544;4.662;2024-03-22T10:04:00;-16083.16;;;-139.74;50.26
76496;BME280;65329;52.544;4.662;2024-03-22T10:06:27;-16412.97;;;-139.74;50.54
76496;BME280;65329;52.544;4.662;2024-03-22T10:08:58;-16720.25;;;-139.74;51.00
76496;BME280;65329;52.544;4.662;2024-03-22T10:11:28;-16785.81;;;-139.74;50.28
76496;BME280;65329;52.544;4.662;2024-03-22T10:13:54;-16970.16;;;-139.74;50.22
76496;BME280;65329;52.544;4.662;2024-03-22T10:16:22;-17273.28;;;-139.74;50.24
76496;BME280;65329;52.544;4.662;2024-03-22T10:18:48;-17738.19;;;-139.74;50.55
76496;BME280;65329;52.544;4.662;2024-03-22T10:21:18;-18597.69;;;-139.74;50.29
76496;BME280;65329;52.544;4.662;2024-03-22T10:23:46;-18597.69;;;-139.74;48.22
76496;BME280;65329;52.544;4.662;2024-03-22T10:26:14;-18597.69;;;-139.74;48.13
76496;BME280;65329;52.544;4.662;2024-03-22T10:28:46;-18597.69;;;-139.74;47.70
76496;BME280;65329;52.544;4.662;2024-03-22T10:31:13;-18597.69;;;-139.74;46.75
76496;BME280;65329;52.544;4.662;2024-03-22T10:33:44;-18597.69;;;-139.74;46.82
76496;BME280;65329;52.544;4.662;2024-03-22T10:36:11;-18597.69;;;-139.74;45.14
76496;BME280;65329;52.544;4.662;2024-03-22T10:38:39;-18597.69;;;-139.74;45.16
76496;BME280;65329;52.544;4.662;2024-03-22T10:41:06;-18597.69;;;-139.74;44.70
76496;BME280;65329;52.544;4.662;2024-03-22T10:43:32;-18597.69;;;-139.74;45.06
76496;BME280;65329;52.544;4.662;2024-03-22T10:46:02;-18597.69;;;-139.74;43.57
76496;BME280;65329;52.544;4.662;2024-03-22T10:48:31;-18597.69;;;-139.74;42.14
76496;BME280;65329;52.544;4.662;2024-03-22T10:51:00;-18597.69;;;-139.74;38.44
76496;BME280;65329;52.544;4.662;2024-03-22T10:53:30;-18597.69;;;-139.74;34.28
76496;BME280;65329;52.544;4.662;2024-03-22T10:55:58;-18597.69;;;-139.74;37.64
76496;BME280;65329;52.544;4.662;2024-03-22T10:58:25;-18597.69;;;-139.74;38.88
76496;BME280;65329;52.544;4.662;2024-03-22T11:00:56;-18597.69;;;-139.74;37.74
76496;BME280;65329;52.544;4.662;2024-03-22T11:03:25;-18597.69;;;-139.74;32.21
76496;BME280;65329;52.544;4.662;2024-03-22T11:05:56;-18597.69;;;-139.74;31.91
76496;BME280;65329;52.544;4.662;2024-03-22T11:08:30;-18597.69;;;-139.74;31.46
76496;BME280;65329;52.544;4.662;2024-03-22T11:10:56;-18597.69;;;-139.74;30.11
76496;BME280;65329;52.544;4.662;2024-03-22T11:13:23;-18597.69;;;-139.74;21.44
76496;BME280;65329;52.544;4.662;2024-03-22T11:15:49;-18597.69;;;-139.74;21.54
76496;BME280;65329;52.544;4.662;2024-03-22T11:18:16;-18597.69;;;-139.74;23.52
76496;BME280;65329;52.544;4.662;2024-03-22T11:20:43;-18597.69;;;-139.74;21.40
76496;BME280;65329;52.544;4.662;2024-03-22T11:23:11;-18597.69;;;-139.74;20.81
76496;BME280;65329;52.544;4.662;2024-03-22T11:25:37;-18597.69;;;-139.74;17.56
76496;BME280;65329;52.544;4.662;2024-03-22T11:28:04;-18596.16;;;-139.74;12.46
76496;BME280;65329;52.544;4.662;2024-03-22T11:30:32;-18334.06;;;-139.74;6.77
76496;BME280;65329;52.544;4.662;2024-03-22T11:33:01;-18596.16;;;-139.74;12.67
76496;BME280;65329;52.544;4.662;2024-03-22T11:35:27;-18596.16;;;-139.74;11.82
